sensor_id;sensor_type;location;lat;lon;timestamp;pressure;altitude;pressure_sealevel;temperature;humidity
57574;BME280;68988;49.000;21.242;2023-04-04T00:00:14;98887.50;;;23.05;35.08
57574;BME280;68988;49.000;21.242;2023-04-04T00:02:40;98888.53;;;23.04;35.14
57574;BME280;68988;49.000;21.242;2023-04-04T00:05:06;98893.91;;;23.04;35.30
57574;BME280;68988;49.000;21.242;2023-04-04T00:07:34;98885.88;;;23.04;35.16
57574;BME280;68988;49.000;21.242;2023-04-04T00:10:00;98894.47;;;23.06;35.09
57574;BME280;68988;49.000;21.242;2023-04-04T00:12:25;98882.16;;;23.05;35.17
57574;BME280;68988;49.000;21.242;2023-04-04T00:14:51;98887.50;;;23.05;35.04
57574;BME280;68988;49.000;21.242;2023-04-04T00:17:17;98885.06;;;23.04;34.93
57574;BME280;68988;49.000;21.242;2023-04-04T00:19:42;98884.28;;;23.03;35.08
57574;BME280;68988;49.000;21.242;2023-04-04T00:22:08;98882.63;;;22.97;34.88
57574;BME280;68988;49.000;21.242;2023-04-04T00:24:33;98877.84;;;23.04;35.12
57574;BME280;68988;49.000;21.242;2023-04-04T00:26:59;98884.81;;;23.05;34.97
57574;BME280;68988;49.000;21.242;2023-04-04T00:29:25;98885.06;;;23.04;35.11
57574;BME280;68988;49.000;21.242;2023-04-04T00:31:50;98880.53;;;23.04;34.93
57574;BME280;68988;49.000;21.242;2023-04-04T00:34:16;98875.19;;;23.04;35.08
57574;BME280;68988;49.000;21.242;2023-04-04T00:36:41;98888.81;;;23.03;35.00
57574;BME280;68988;49.000;21.242;2023-04-04T00:39:08;98877.31;;;23.02;35.04
57574;BME280;68988;49.000;21.242;2023-04-04T00:41:33;98872.75;;;23.03;35.05
57574;BME280;68988;49.000;21.242;2023-04-04T00:43:59;98869.53;;;23.01;35.10
57574;BME280;68988;49.000;21.242;2023-04-04T00:46:26;98883.72;;;23.01;34.97
57574;BME280;68988;49.000;21.242;2023-04-04T00:48:52;98888.50;;;22.99;35.10
57574;BME280;68988;49.000;21.242;2023-04-04T00:51:18;98883.16;;;22.99;35.00
57574;BME280;68988;49.000;21.242;2023-04-04T00:53:45;98891.72;;;23.01;35.12
57574;BME280;68988;49.000;21.242;2023-04-04T00:56:11;98894.16;;;23.03;34.94
57574;BME280;68988;49.000;21.242;2023-04-04T00:58:37;98893.34;;;23.02;34.81
57574;BME280;68988;49.000;21.242;2023-04-04T01:01:03;98888.81;;;23.03;34.93
57574;BME280;68988;49.000;21.242;2023-04-04T01:03:29;98885.59;;;23.01;34.86
57574;BME280;68988;49.000;21.242;2023-04-04T01:05:55;98885.88;;;23.04;34.83
57574;BME280;68988;49.000;21.242;2023-04-04T01:08:23;98884.28;;;23.03;34.86
57574;BME280;68988;49.000;21.242;2023-04-04T01:10:49;98871.97;;;23.02;34.86
57574;BME280;68988;49.000;21.242;2023-04-04T01:13:15;98878.34;;;23.01;34.89
57574;BME280;68988;49.000;21.242;2023-04-04T01:15:41;98883.44;;;23.03;34.75
57574;BME280;68988;49.000;21.242;2023-04-04T01:18:07;98886.38;;;23.01;35.03
57574;BME280;68988;49.000;21.242;2023-04-04T01:20:36;98888.00;;;23.02;34.85
57574;BME280;68988;49.000;21.242;2023-04-04T01:23:04;98897.09;;;23.01;34.89
57574;BME280;68988;49.000;21.242;2023-04-04T01:25:31;98891.72;;;23.01;34.92
57574;BME280;68988;49.000;21.242;2023-04-04T01:27:57;98888.50;;;22.99;35.00
57574;BME280;68988;49.000;21.242;2023-04-04T01:30:26;98885.84;;;22.99;35.07
57574;BME280;68988;49.000;21.242;2023-04-04T01:33:00;98894.97;;;23.03;34.95
57574;BME280;68988;49.000;21.242;2023-04-04T01:35:36;98894.97;;;23.03;34.85
57574;BME280;68988;49.000;21.242;2023-04-04T01:38:24;98889.38;;;23.05;34.78
57574;BME280;68988;49.000;21.242;2023-04-04T01:40:55;98895.22;;;23.02;34.70
57574;BME280;68988;49.000;21.242;2023-04-04T01:43:21;98893.31;;;22.97;34.90
57574;BME280;68988;49.000;21.242;2023-04-04T01:45:48;98900.00;;;23.00;34.73
57574;BME280;68988;49.000;21.242;2023-04-04T01:48:13;98902.94;;;22.98;34.70
57574;BME280;68988;49.000;21.242;2023-04-04T01:50:40;98885.56;;;22.96;34.71
57574;BME280;68988;49.000;21.242;2023-04-04T01:53:06;98894.13;;;22.98;34.84
57574;BME280;68988;49.000;21.242;2023-04-04T01:55:31;98882.38;;;22.99;34.93
57574;BME280;68988;49.000;21.242;2023-04-04T01:57:57;98890.13;;;23.00;34.94
57574;BME280;68988;49.000;21.242;2023-04-04T02:00:23;98877.81;;;22.99;34.84
57574;BME280;68988;49.000;21.242;2023-04-04T02:02:48;98873.53;;;22.98;34.94
57574;BME280;68988;49.000;21.242;2023-04-04T02:05:13;98863.91;;;22.97;34.92
57574;BME280;68988;49.000;21.242;2023-04-04T02:07:39;98864.69;;;22.98;34.72
57574;BME280;68988;49.000;21.242;2023-04-04T02:10:05;98854.81;;;22.98;34.75
57574;BME280;68988;49.000;21.242;2023-04-04T02:12:30;98854.00;;;22.98;34.75
57574;BME280;68988;49.000;21.242;2023-04-04T02:14:55;98844.09;;;22.98;34.79
57574;BME280;68988;49.000;21.242;2023-04-04T02:17:21;98835.53;;;22.96;34.73
57574;BME280;68988;49.000;21.242;2023-04-04T02:19:46;98830.72;;;22.98;34.82
57574;BME280;68988;49.000;21.242;2023-04-04T02:22:11;98823.53;;;22.99;34.71
57574;BME280;68988;49.000;21.242;2023-04-04T02:24:37;98820.28;;;22.97;34.39
57574;BME280;68988;49.000;21.242;2023-04-04T02:27:02;98812.00;;;22.98;34.46
57574;BME280;68988;49.000;21.242;2023-04-04T02:29:28;98804.81;;;22.99;34.70
57574;BME280;68988;49.000;21.242;2023-04-04T02:31:54;98812.84;;;22.99;34.69
57574;BME280;68988;49.000;21.242;2023-04-04T02:34:20;98804.56;;;23.00;34.58
57574;BME280;68988;49.000;21.242;2023-04-04T02:36:45;98795.97;;;22.98;34.58
57574;BME280;68988;49.000;21.242;2023-04-04T02:39:11;98800.53;;;22.98;34.70
57574;BME280;68988;49.000;21.242;2023-04-04T02:41:36;98791.44;;;22.99;34.56
57574;BME280;68988;49.000;21.242;2023-04-04T02:44:02;98795.16;;;22.98;34.72
57574;BME280;68988;49.000;21.242;2023-04-04T02:46:27;98792.50;;;22.98;34.79
57574;BME280;68988;49.000;21.242;2023-04-04T02:48:52;98800.78;;;22.96;34.58
57574;BME280;68988;49.000;21.242;2023-04-04T02:51:18;98802.41;;;22.97;34.66
57574;BME280;68988;49.000;21.242;2023-04-04T02:53:43;98793.53;;;22.97;34.63
57574;BME280;68988;49.000;21.242;2023-04-04T02:56:09;98798.09;;;22.96;34.63
57574;BME280;68988;49.000;21.242;2023-04-04T02:58:34;98795.44;;;22.96;34.59
57574;BME280;68988;49.000;21.242;2023-04-04T03:01:00;98795.97;;;22.98;34.79
57574;BME280;68988;49.000;21.242;2023-04-04T03:03:25;98793.81;;;22.95;34.64
57574;BME280;68988;49.000;21.242;2023-04-04T03:05:51;98791.94;;;22.96;34.66
57574;BME280;68988;49.000;21.242;2023-04-04T03:08:16;98795.44;;;22.96;34.69
57574;BME280;68988;49.000;21.242;2023-04-04T03:10:43;98793.81;;;22.95;34.56
57574;BME280;68988;49.000;21.242;2023-04-04T03:13:08;98789.53;;;22.94;34.75
57574;BME280;68988;49.000;21.242;2023-04-04T03:15:34;98787.41;;;22.96;34.65
57574;BME280;68988;49.000;21.242;2023-04-04T03:17:59;98793.53;;;22.97;34.81
57574;BME280;68988;49.000;21.242;2023-04-04T03:20:25;98780.44;;;22.95;34.53
57574;BME280;68988;49.000;21.242;2023-04-04T03:22:51;98775.09;;;22.95;34.54
57574;BME280;68988;49.000;21.242;2023-04-04T03:25:16;98781.81;;;22.98;34.74
57574;BME280;68988;49.000;21.242;2023-04-04T03:27:42;98774.03;;;22.96;34.44
57574;BME280;68988;49.000;21.242;2023-04-04T03:30:08;98772.41;;;22.95;34.70
57574;BME280;68988;49.000;21.242;2023-04-04T03:32:35;98769.75;;;22.95;34.63
57574;BME280;68988;49.000;21.242;2023-04-04T03:35:01;98775.91;;;22.96;34.69
57574;BME280;68988;49.000;21.242;2023-04-04T03:37:28;98779.63;;;22.95;34.53
57574;BME280;68988;49.000;21.242;2023-04-04T03:39:54;98783.69;;;22.97;34.47
57574;BME280;68988;49.000;21.242;2023-04-04T03:42:19;98774.03;;;22.96;34.67
57574;BME280;68988;49.000;21.242;2023-04-04T03:44:46;98772.97;;;22.97;34.59
57574;BME280;68988;49.000;21.242;2023-04-04T03:47:12;98778.31;;;22.97;34.42
57574;BME280;68988;49.000;21.242;2023-04-04T03:49:38;98787.66;;;22.95;34.66
57574;BME280;68988;49.000;21.242;2023-04-04T03:52:03;98783.09;;;22.95;34.59
57574;BME280;68988;49.000;21.242;2023-04-04T03:54:29;98791.13;;;22.95;34.46
57574;BME280;68988;49.000;21.242;2023-04-04T03:56:55;98792.22;;;22.94;34.59
57574;BME280;68988;49.000;21.242;2023-04-04T03:59:21;98802.91;;;22.94;34.54
57574;BME280;68988;49.000;21.242;2023-04-04T04:01:47;98797.81;;;22.93;34.55
57574;BME280;68988;49.000;21.242;2023-04-04T04:04:13;98797.00;;;22.92;34.61
57574;BME280;68988;49.000;21.242;2023-04-04T04:06:38;98797.81;;;22.93;34.52
57574;BME280;68988;49.000;21.242;2023-04-04T04:09:04;98801.81;;;22.95;34.65
57574;BME280;68988;49.000;21.242;2023-04-04T04:11:29;98815.44;;;22.94;34.42
57574;BME280;68988;49.000;21.242;2023-04-04T04:13:55;98816.53;;;22.93;34.32
57574;BME280;68988;49.000;21.242;2023-04-04T04:16:20;98825.34;;;22.93;34.61
57574;BME280;68988;49.000;21.242;2023-04-04T04:18:46;98827.47;;;22.91;34.41
57574;BME280;68988;49.000;21.242;2023-04-04T04:21:12;98825.88;;;22.90;34.82
57574;BME280;68988;49.000;21.242;2023-04-04T04:23:37;98846.75;;;22.93;34.60
57574;BME280;68988;49.000;21.242;2023-04-04T04:26:04;98840.59;;;22.93;34.30
57574;BME280;68988;49.000;21.242;2023-04-04T04:28:30;98831.22;;;22.90;34.43
57574;BME280;68988;49.000;21.242;2023-04-04T04:31:03;98838.22;;;22.96;34.63
57574;BME280;68988;49.000;21.242;2023-04-04T04:33:28;98836.34;;;22.97;34.55
57574;BME280;68988;49.000;21.242;2023-04-04T04:35:58;98850.31;;;23.04;34.60
57574;BME280;68988;49.000;21.242;2023-04-04T04:38:24;98840.91;;;23.01;34.86
57574;BME280;68988;49.000;21.242;2023-04-04T04:40:50;98845.22;;;23.02;34.43
57574;BME280;68988;49.000;21.242;2023-04-04T04:43:15;98851.69;;;23.06;34.54
57574;BME280;68988;49.000;21.242;2023-04-04T04:45:40;98851.19;;;23.10;34.40
57574;BME280;68988;49.000;21.242;2023-04-04T04:48:06;98853.34;;;23.13;34.37
57574;BME280;68988;49.000;21.242;2023-04-04T04:50:32;98844.00;;;23.15;34.41
57574;BME280;68988;49.000;21.242;2023-04-04T04:52:57;98837.44;;;22.68;29.18
57574;BME280;68988;49.000;21.242;2023-04-04T04:55:22;98847.84;;;22.15;28.89
57574;BME280;68988;49.000;21.242;2023-04-04T04:57:48;98844.28;;;22.54;31.96
57574;BME280;68988;49.000;21.242;2023-04-04T05:00:14;98842.81;;;22.74;32.37
57574;BME280;68988;49.000;21.242;2023-04-04T05:02:40;98841.03;;;22.84;32.46
57574;BME280;68988;49.000;21.242;2023-04-04T05:05:06;98835.53;;;22.96;32.51
57574;BME280;68988;49.000;21.242;2023-04-04T05:07:31;98832.38;;;23.04;32.71
57574;BME280;68988;49.000;21.242;2023-04-04T05:09:57;98836.75;;;23.11;32.68
57574;BME280;68988;49.000;21.242;2023-04-04T05:12:22;98830.63;;;23.15;32.44
57574;BME280;68988;49.000;21.242;2023-04-04T05:14:48;98834.69;;;23.23;32.68
57574;BME280;68988;49.000;21.242;2023-04-04T05:17:13;98828.81;;;23.26;32.92
57574;BME280;68988;49.000;21.242;2023-04-04T05:19:38;98830.72;;;23.31;33.10
57574;BME280;68988;49.000;21.242;2023-04-04T05:22:05;98837.19;;;23.35;33.07
57574;BME280;68988;49.000;21.242;2023-04-04T05:24:31;98829.69;;;23.37;33.19
57574;BME280;68988;49.000;21.242;2023-04-04T05:26:57;98836.41;;;23.39;33.07
57574;BME280;68988;49.000;21.242;2023-04-04T05:29:22;98839.09;;;23.45;33.16
57574;BME280;68988;49.000;21.242;2023-04-04T05:31:47;98835.09;;;23.47;33.30
57574;BME280;68988;49.000;21.242;2023-04-04T05:34:13;98842.63;;;23.50;33.28
57574;BME280;68988;49.000;21.242;2023-04-04T05:36:38;98852.28;;;23.51;33.15
57574;BME280;68988;49.000;21.242;2023-04-04T05:39:04;98839.16;;;23.50;33.45
57574;BME280;68988;49.000;21.242;2023-04-04T05:41:30;98849.34;;;23.53;33.57
57574;BME280;68988;49.000;21.242;2023-04-04T05:43:55;98850.41;;;23.57;33.73
57574;BME280;68988;49.000;21.242;2023-04-04T05:46:21;98851.50;;;23.56;33.96
57574;BME280;68988;49.000;21.242;2023-04-04T05:48:46;98856.34;;;23.59;33.99
57574;BME280;68988;49.000;21.242;2023-04-04T05:51:12;98857.41;;;23.63;33.81
57574;BME280;68988;49.000;21.242;2023-04-04T05:53:37;98863.59;;;23.64;33.88
57574;BME280;68988;49.000;21.242;2023-04-04T05:56:03;98864.13;;;23.66;33.93
57574;BME280;68988;49.000;21.242;2023-04-04T05:58:28;98873.25;;;23.70;33.88
57574;BME280;68988;49.000;21.242;2023-04-04T06:00:54;98862.81;;;23.68;33.89
57574;BME280;68988;49.000;21.242;2023-04-04T06:03:19;98861.72;;;23.69;34.10
57574;BME280;68988;49.000;21.242;2023-04-04T06:05:49;98873.78;;;23.72;34.09
57574;BME280;68988;49.000;21.242;2023-04-04T06:08:15;98872.41;;;23.64;33.86
57574;BME280;68988;49.000;21.242;2023-04-04T06:10:41;98865.47;;;23.68;33.81
57574;BME280;68988;49.000;21.242;2023-04-04T06:13:06;98868.97;;;23.69;33.85
57574;BME280;68988;49.000;21.242;2023-04-04T06:15:31;98867.06;;;23.69;33.87
57574;BME280;68988;49.000;21.242;2023-04-04T06:17:57;98860.94;;;23.74;33.92
57574;BME280;68988;49.000;21.242;2023-04-04T06:20:22;98857.47;;;23.73;33.86
57574;BME280;68988;49.000;21.242;2023-04-04T06:22:48;98864.19;;;23.76;33.74
57574;BME280;68988;49.000;21.242;2023-04-04T06:25:13;98865.78;;;23.77;33.85
57574;BME280;68988;49.000;21.242;2023-04-04T06:27:39;98862.88;;;23.84;33.83
57574;BME280;68988;49.000;21.242;2023-04-04T06:30:05;98857.47;;;23.78;33.69
57574;BME280;68988;49.000;21.242;2023-04-04T06:32:31;98856.94;;;23.76;33.81
57574;BME280;68988;49.000;21.242;2023-04-04T06:34:58;98863.94;;;23.83;33.82
57574;BME280;68988;49.000;21.242;2023-04-04T06:37:23;98857.53;;;23.84;34.00
57574;BME280;68988;49.000;21.242;2023-04-04T06:39:48;98851.59;;;23.82;34.05
57574;BME280;68988;49.000;21.242;2023-04-04T06:42:14;98853.31;;;23.93;34.45
57574;BME280;68988;49.000;21.242;2023-04-04T06:44:39;98856.53;;;23.95;34.43
57574;BME280;68988;49.000;21.242;2023-04-04T06:47:04;98860.00;;;23.95;34.42
57574;BME280;68988;49.000;21.242;2023-04-04T06:49:30;98862.69;;;23.95;34.49
57574;BME280;68988;49.000;21.242;2023-04-04T06:51:58;98864.03;;;23.98;34.36
57574;BME280;68988;49.000;21.242;2023-04-04T06:54:24;98860.03;;;24.01;34.36
57574;BME280;68988;49.000;21.242;2023-04-04T06:56:50;98853.34;;;24.03;34.71
57574;BME280;68988;49.000;21.242;2023-04-04T06:59:16;98859.78;;;24.02;34.73
57574;BME280;68988;49.000;21.242;2023-04-04T07:01:42;98845.34;;;24.08;34.73
57574;BME280;68988;49.000;21.242;2023-04-04T07:04:07;98840.25;;;24.12;34.68
57574;BME280;68988;49.000;21.242;2023-04-04T07:06:33;98841.88;;;24.13;34.88
57574;BME280;68988;49.000;21.242;2023-04-04T07:08:58;98849.13;;;24.18;34.64
57574;BME280;68988;49.000;21.242;2023-04-04T07:11:23;98856.88;;;24.19;35.02
57574;BME280;68988;49.000;21.242;2023-04-04T07:13:49;98848.59;;;24.21;35.15
57574;BME280;68988;49.000;21.242;2023-04-04T07:16:14;98847.22;;;24.23;35.05
57574;BME280;68988;49.000;21.242;2023-04-04T07:18:40;98850.75;;;24.29;35.42
57574;BME280;68988;49.000;21.242;2023-04-04T07:21:05;98853.69;;;24.33;35.24
57574;BME280;68988;49.000;21.242;2023-04-04T07:23:31;98853.44;;;24.34;35.39
57574;BME280;68988;49.000;21.242;2023-04-04T07:25:56;98841.13;;;24.33;35.48
57574;BME280;68988;49.000;21.242;2023-04-04T07:28:22;98851.03;;;24.38;35.49
57574;BME280;68988;49.000;21.242;2023-04-04T07:30:47;98847.53;;;24.37;35.67
57574;BME280;68988;49.000;21.242;2023-04-04T07:33:12;98841.66;;;24.40;35.52
57574;BME280;68988;49.000;21.242;2023-04-04T07:35:38;98853.47;;;24.39;35.71
57574;BME280;68988;49.000;21.242;2023-04-04T07:38:03;98860.16;;;24.42;35.76
57574;BME280;68988;49.000;21.242;2023-04-04T07:40:29;98863.66;;;24.42;35.77
57574;BME280;68988;49.000;21.242;2023-04-04T07:42:56;98859.34;;;24.41;35.79
57574;BME280;68988;49.000;21.242;2023-04-04T07:45:21;98860.44;;;24.45;35.91
57574;BME280;68988;49.000;21.242;2023-04-04T07:47:47;98852.94;;;24.47;35.97
57574;BME280;68988;49.000;21.242;2023-04-04T07:50:13;98853.19;;;24.51;35.83
57574;BME280;68988;49.000;21.242;2023-04-04T07:52:38;98840.34;;;24.53;36.09
57574;BME280;68988;49.000;21.242;2023-04-04T07:55:05;98838.19;;;24.55;35.99
57574;BME280;68988;49.000;21.242;2023-04-04T07:57:32;98842.25;;;24.58;36.21
57574;BME280;68988;49.000;21.242;2023-04-04T07:59:57;98826.44;;;24.61;36.08
57574;BME280;68988;49.000;21.242;2023-04-04T08:02:23;98840.66;;;24.62;36.04
57574;BME280;68988;49.000;21.242;2023-04-04T08:04:49;98827.22;;;24.62;36.13
57574;BME280;68988;49.000;21.242;2023-04-04T08:07:15;98824.53;;;24.57;36.13
57574;BME280;68988;49.000;21.242;2023-04-04T08:09:40;98818.66;;;24.60;35.99
57574;BME280;68988;49.000;21.242;2023-04-04T08:12:06;98815.72;;;24.66;35.84
57574;BME280;68988;49.000;21.242;2023-04-04T08:14:32;98812.22;;;24.66;36.19
57574;BME280;68988;49.000;21.242;2023-04-04T08:16:57;98825.38;;;24.73;36.81
57574;BME280;68988;49.000;21.242;2023-04-04T08:19:23;98821.09;;;24.72;36.65
57574;BME280;68988;49.000;21.242;2023-04-04T08:21:48;98824.31;;;24.74;36.58
57574;BME280;68988;49.000;21.242;2023-04-04T08:24:14;98833.97;;;24.75;36.66
57574;BME280;68988;49.000;21.242;2023-04-04T08:26:39;98817.88;;;24.75;36.72
57574;BME280;68988;49.000;21.242;2023-04-04T08:29:06;98840.66;;;24.77;36.88
57574;BME280;68988;49.000;21.242;2023-04-04T08:31:31;98826.72;;;24.75;36.86
57574;BME280;68988;49.000;21.242;2023-04-04T08:33:57;98828.34;;;24.76;36.98
57574;BME280;68988;49.000;21.242;2023-04-04T08:36:22;98825.66;;;24.76;36.87
57574;BME280;68988;49.000;21.242;2023-04-04T08:38:48;98826.19;;;24.78;36.92
57574;BME280;68988;49.000;21.242;2023-04-04T08:41:13;98841.47;;;24.78;37.09
57574;BME280;68988;49.000;21.242;2023-04-04T08:43:46;98836.13;;;24.78;37.24
57574;BME280;68988;49.000;21.242;2023-04-04T08:46:20;98831.81;;;24.77;37.01
57574;BME280;68988;49.000;21.242;2023-04-04T08:48:48;98849.78;;;24.76;37.03
57574;BME280;68988;49.000;21.242;2023-04-04T08:51:14;98841.47;;;24.78;37.22
57574;BME280;68988;49.000;21.242;2023-04-04T08:53:42;98839.06;;;24.76;37.01
57574;BME280;68988;49.000;21.242;2023-04-04T08:56:07;98835.28;;;24.77;37.15
57574;BME280;68988;49.000;21.242;2023-04-04T08:58:33;98842.00;;;24.80;37.22
57574;BME280;68988;49.000;21.242;2023-04-04T09:00:58;98834.50;;;24.82;37.20
57574;BME280;68988;49.000;21.242;2023-04-04T09:03:28;98820.81;;;24.83;37.35
57574;BME280;68988;49.000;21.242;2023-04-04T09:05:55;98835.59;;;24.81;37.47
57574;BME280;68988;49.000;21.242;2023-04-04T09:08:21;98834.78;;;24.86;37.51
57574;BME280;68988;49.000;21.242;2023-04-04T09:10:49;98832.09;;;24.86;37.48
57574;BME280;68988;49.000;21.242;2023-04-04T09:13:15;98839.31;;;24.85;37.69
57574;BME280;68988;49.000;21.242;2023-04-04T09:15:45;98821.63;;;24.79;33.37
57574;BME280;68988;49.000;21.242;2023-04-04T09:18:11;98836.25;;;24.20;33.49
57574;BME280;68988;49.000;21.242;2023-04-04T09:20:41;98833.34;;;24.37;33.36
57574;BME280;68988;49.000;21.242;2023-04-04T09:23:15;98829.34;;;24.44;34.05
57574;BME280;68988;49.000;21.242;2023-04-04T09:28:15;98837.16;;;24.61;34.26
57574;BME280;68988;49.000;21.242;2023-04-04T09:30:42;98834.78;;;24.70;34.44
57574;BME280;68988;49.000;21.242;2023-04-04T09:33:11;98824.56;;;24.72;34.69
57574;BME280;68988;49.000;21.242;2023-04-04T09:35:38;98829.66;;;24.74;34.59
57574;BME280;68988;49.000;21.242;2023-04-04T09:38:06;98839.34;;;24.75;34.79
57574;BME280;68988;49.000;21.242;2023-04-04T09:40:34;98836.91;;;24.68;35.07
57574;BME280;68988;49.000;21.242;2023-04-04T09:43:01;98834.22;;;24.63;34.72
57574;BME280;68988;49.000;21.242;2023-04-04T09:45:29;98815.44;;;24.63;34.46
57574;BME280;68988;49.000;21.242;2023-04-04T09:47:55;98832.63;;;24.72;34.66
57574;BME280;68988;49.000;21.242;2023-04-04T09:50:23;98828.88;;;24.73;34.68
57574;BME280;68988;49.000;21.242;2023-04-04T09:52:49;98813.03;;;24.77;34.52
57574;BME280;68988;49.000;21.242;2023-04-04T09:55:15;98821.63;;;24.79;34.70
57574;BME280;68988;49.000;21.242;2023-04-04T09:57:41;98831.81;;;24.82;34.93
57574;BME280;68988;49.000;21.242;2023-04-04T10:00:07;98824.59;;;24.82;34.87
57574;BME280;68988;49.000;21.242;2023-04-04T10:02:36;98828.31;;;24.81;35.40
57574;BME280;68988;49.000;21.242;2023-04-04T10:05:07;98824.31;;;24.84;35.25
57574;BME280;68988;49.000;21.242;2023-04-04T10:07:37;98827.78;;;24.90;35.32
57574;BME280;68988;49.000;21.242;2023-04-04T10:10:07;98830.75;;;24.93;35.47
57574;BME280;68988;49.000;21.242;2023-04-04T10:12:35;98820.00;;;24.88;35.42
57574;BME280;68988;49.000;21.242;2023-04-04T10:15:01;98816.25;;;24.89;35.59
57574;BME280;68988;49.000;21.242;2023-04-04T10:17:35;98818.66;;;24.96;35.48
57574;BME280;68988;49.000;21.242;2023-04-04T10:20:03;98812.25;;;24.92;35.53
57574;BME280;68988;49.000;21.242;2023-04-04T10:22:32;98814.38;;;24.90;35.51
57574;BME280;68988;49.000;21.242;2023-04-04T10:24:58;98825.13;;;24.95;35.71
57574;BME280;68988;49.000;21.242;2023-04-04T10:27:24;98826.44;;;24.92;35.73
57574;BME280;68988;49.000;21.242;2023-04-04T10:29:50;98818.13;;;24.94;35.30
57574;BME280;68988;49.000;21.242;2023-04-04T10:32:22;98826.19;;;24.94;35.78
57574;BME280;68988;49.000;21.242;2023-04-04T10:35:02;98819.75;;;24.95;35.94
57574;BME280;68988;49.000;21.242;2023-04-04T10:37:31;98801.78;;;24.90;35.72
57574;BME280;68988;49.000;21.242;2023-04-04T10:40:15;98806.34;;;24.95;35.92
57574;BME280;68988;49.000;21.242;2023-04-04T10:42:45;98809.56;;;24.97;35.85
57574;BME280;68988;49.000;21.242;2023-04-04T10:45:12;98818.13;;;24.99;35.77
57574;BME280;68988;49.000;21.242;2023-04-04T10:47:39;98805.25;;;25.01;36.06
57574;BME280;68988;49.000;21.242;2023-04-04T10:50:06;98801.75;;;25.00;35.84
57574;BME280;68988;49.000;21.242;2023-04-04T10:52:35;98790.47;;;25.03;35.94
57574;BME280;68988;49.000;21.242;2023-04-04T10:55:04;98789.97;;;25.01;36.30
57574;BME280;68988;49.000;21.242;2023-04-04T10:57:32;98794.00;;;25.04;36.55
57574;BME280;68988;49.000;21.242;2023-04-04T11:00:17;98796.38;;;25.11;36.52
57574;BME280;68988;49.000;21.242;2023-04-04T11:02:59;98802.56;;;25.06;36.50
57574;BME280;68988;49.000;21.242;2023-04-04T11:05:31;98809.28;;;25.09;36.42
57574;BME280;68988;49.000;21.242;2023-04-04T11:08:03;98796.66;;;25.04;36.69
57574;BME280;68988;49.000;21.242;2023-04-04T11:10:32;98791.56;;;25.08;36.56
57574;BME280;68988;49.000;21.242;2023-04-04T11:13:45;98807.41;;;25.04;36.62
57574;BME280;68988;49.000;21.242;2023-04-04T11:16:06;98810.88;;;25.10;36.48
57574;BME280;68988;49.000;21.242;2023-04-04T11:21:08;98796.66;;;25.04;36.06
57574;BME280;68988;49.000;21.242;2023-04-04T11:28:58;98787.03;;;24.82;32.69
57574;BME280;68988;49.000;21.242;2023-04-04T11:31:31;98787.03;;;24.77;32.32
57574;BME280;68988;49.000;21.242;2023-04-04T11:39:32;98803.13;;;24.72;32.22
57574;BME280;68988;49.000;21.242;2023-04-04T11:42:10;98805.47;;;24.48;33.29
57574;BME280;68988;49.000;21.242;2023-04-04T11:49:37;98786.50;;;24.70;33.69
57574;BME280;68988;49.000;21.242;2023-04-04T11:52:07;98784.88;;;24.79;33.89
57574;BME280;68988;49.000;21.242;2023-04-04T11:54:37;98783.00;;;24.85;34.01
57574;BME280;68988;49.000;21.242;2023-04-04T11:57:05;98779.50;;;24.90;34.16
57574;BME280;68988;49.000;21.242;2023-04-04T11:59:30;98797.47;;;24.94;34.25
57574;BME280;68988;49.000;21.242;2023-04-04T12:01:56;98785.41;;;24.87;34.52
57574;BME280;68988;49.000;21.242;2023-04-04T12:04:24;98808.50;;;24.82;34.63
57574;BME280;68988;49.000;21.242;2023-04-04T12:06:51;98793.19;;;24.88;34.66
57574;BME280;68988;49.000;21.242;2023-04-04T12:09:17;98790.50;;;24.93;34.65
57574;BME280;68988;49.000;21.242;2023-04-04T12:11:47;98787.03;;;24.88;35.14
57574;BME280;68988;49.000;21.242;2023-04-04T12:14:18;98774.69;;;24.92;35.29
57574;BME280;68988;49.000;21.242;2023-04-04T12:16:47;98774.69;;;24.92;35.35
57574;BME280;68988;49.000;21.242;2023-04-04T12:19:12;98760.47;;;24.91;35.29
57574;BME280;68988;49.000;21.242;2023-04-04T12:21:38;98759.38;;;24.97;35.22
57574;BME280;68988;49.000;21.242;2023-04-04T12:24:06;98750.81;;;24.95;35.58
57574;BME280;68988;49.000;21.242;2023-04-04T12:26:33;98752.69;;;24.95;35.91
57574;BME280;68988;49.000;21.242;2023-04-04T12:28:59;98759.66;;;25.01;35.35
57574;BME280;68988;49.000;21.242;2023-04-04T12:31:25;98763.41;;;25.00;35.61
57574;BME280;68988;49.000;21.242;2023-04-04T12:33:51;98756.41;;;24.99;35.69
57574;BME280;68988;49.000;21.242;2023-04-04T12:36:17;98749.47;;;24.98;35.29
57574;BME280;68988;49.000;21.242;2023-04-04T12:39:15;98760.44;;;25.07;35.64
57574;BME280;68988;49.000;21.242;2023-04-04T12:44:24;98746.25;;;25.01;35.69
57574;BME280;68988;49.000;21.242;2023-04-04T12:46:55;98754.28;;;25.01;35.56
57574;BME280;68988;49.000;21.242;2023-04-04T12:49:23;98741.16;;;24.99;35.53
57574;BME280;68988;49.000;21.242;2023-04-04T12:51:52;98756.16;;;25.00;35.67
57574;BME280;68988;49.000;21.242;2023-04-04T12:54:26;98758.00;;;25.05;35.66
57574;BME280;68988;49.000;21.242;2023-04-04T12:56:56;98733.88;;;25.05;35.69
57574;BME280;68988;49.000;21.242;2023-04-04T12:59:26;98750.50;;;25.02;35.69
57574;BME280;68988;49.000;21.242;2023-04-04T13:01:52;98748.91;;;25.06;35.62
57574;BME280;68988;49.000;21.242;2023-04-04T13:04:18;98747.84;;;25.07;35.66
57574;BME280;68988;49.000;21.242;2023-04-04T13:06:44;98754.28;;;25.06;35.50
57574;BME280;68988;49.000;21.242;2023-04-04T13:09:18;98745.44;;;25.06;35.90
57574;BME280;68988;49.000;21.242;2023-04-04T13:11:57;98754.25;;;25.11;35.76